sensor_id;sensor_type;location;lat;lon;timestamp;P1;durP1;ratioP1;P2;durP2;ratioP2
58896;SDS011;44677;52.378;10.400;2023-09-07T00:00:14;4.30;;;3.90;;
58896;SDS011;44677;52.378;10.400;2023-09-07T00:02:40;6.10;;;3.70;;
58896;SDS011;44677;52.378;10.400;2023-09-07T00:05:06;5.50;;;3.90;;
58896;SDS011;44677;52.378;10.400;2023-09-07T00:07:33;4.10;;;3.70;;
58896;SDS011;44677;52.378;10.400;2023-09-07T00:09:59;5.10;;;4.40;;
58896;SDS011;44677;52.378;10.400;2023-09-07T00:12:25;8.80;;;4.00;;
58896;SDS011;44677;52.378;10.400;2023-09-07T00:14:51;7.50;;;4.10;;
58896;SDS011;44677;52.378;10.400;2023-09-07T00:17:25;4.50;;;4.00;;
58896;SDS011;44677;52.378;10.400;2023-09-07T00:19:50;4.70;;;3.90;;
58896;SDS011;44677;52.378;10.400;2023-09-07T00:22:17;5.80;;;4.20;;
58896;SDS011;44677;52.378;10.400;2023-09-07T00:24:46;5.30;;;4.00;;
58896;SDS011;44677;52.378;10.400;2023-09-07T00:27:25;4.50;;;4.00;;
58896;SDS011;44677;52.378;10.400;2023-09-07T00:29:51;4.20;;;3.80;;
58896;SDS011;44677;52.378;10.400;2023-09-07T00:32:16;4.40;;;3.90;;
58896;SDS011;44677;52.378;10.400;2023-09-07T00:34:42;5.20;;;4.40;;
58896;SDS011;44677;52.378;10.400;2023-09-07T00:37:10;5.80;;;4.20;;
58896;SDS011;44677;52.378;10.400;2023-09-07T00:39:36;7.20;;;3.90;;
58896;SDS011;44677;52.378;10.400;2023-09-07T00:42:01;5.90;;;4.50;;
58896;SDS011;44677;52.378;10.400;2023-09-07T00:44:27;4.60;;;4.20;;
58896;SDS011;44677;52.378;10.400;2023-09-07T00:46:53;6.70;;;4.20;;
58896;SDS011;44677;52.378;10.400;2023-09-07T00:49:18;5.40;;;4.70;;
58896;SDS011;44677;52.378;10.400;2023-09-07T00:51:44;5.00;;;4.50;;
58896;SDS011;44677;52.378;10.400;2023-09-07T00:54:10;6.10;;;4.90;;
58896;SDS011;44677;52.378;10.400;2023-09-07T00:56:36;5.20;;;4.80;;
58896;SDS011;44677;52.378;10.400;2023-09-07T00:59:02;6.30;;;4.60;;
58896;SDS011;44677;52.378;10.400;2023-09-07T01:01:30;5.90;;;4.70;;
58896;SDS011;44677;52.378;10.400;2023-09-07T01:03:56;7.70;;;4.50;;
58896;SDS011;44677;52.378;10.400;2023-09-07T01:06:27;5.10;;;4.60;;
58896;SDS011;44677;52.378;10.400;2023-09-07T01:09:29;6.40;;;4.40;;
58896;SDS011;44677;52.378;10.400;2023-09-07T01:12:30;7.90;;;4.60;;
58896;SDS011;44677;52.378;10.400;2023-09-07T01:15:03;5.30;;;4.30;;
58896;SDS011;44677;52.378;10.400;2023-09-07T01:17:30;5.70;;;4.20;;
58896;SDS011;44677;52.378;10.400;2023-09-07T01:19:56;5.00;;;4.40;;
58896;SDS011;44677;52.378;10.400;2023-09-07T01:22:42;4.70;;;4.30;;
58896;SDS011;44677;52.378;10.400;2023-09-07T01:25:08;6.50;;;4.00;;
58896;SDS011;44677;52.378;10.400;2023-09-07T01:27:34;4.70;;;4.30;;
58896;SDS011;44677;52.378;10.400;2023-09-07T01:29:59;6.10;;;4.80;;
58896;SDS011;44677;52.378;10.400;2023-09-07T01:32:25;4.50;;;4.10;;
58896;SDS011;44677;52.378;10.400;2023-09-07T01:37:23;5.20;;;4.30;;
58896;SDS011;44677;52.378;10.400;2023-09-07T01:39:48;6.00;;;4.40;;
58896;SDS011;44677;52.378;10.400;2023-09-07T01:42:15;6.50;;;4.60;;
58896;SDS011;44677;52.378;10.400;2023-09-07T01:44:40;5.10;;;4.60;;
58896;SDS011;44677;52.378;10.400;2023-09-07T01:47:06;6.40;;;5.30;;
58896;SDS011;44677;52.378;10.400;2023-09-07T01:49:31;7.30;;;5.60;;
58896;SDS011;44677;52.378;10.400;2023-09-07T01:51:57;7.50;;;4.80;;
58896;SDS011;44677;52.378;10.400;2023-09-07T01:54:22;8.30;;;5.50;;
58896;SDS011;44677;52.378;10.400;2023-09-07T01:56:48;7.60;;;5.30;;
58896;SDS011;44677;52.378;10.400;2023-09-07T01:59:13;6.60;;;5.30;;
58896;SDS011;44677;52.378;10.400;2023-09-07T02:01:39;6.10;;;5.40;;
58896;SDS011;44677;52.378;10.400;2023-09-07T02:04:22;7.00;;;5.00;;
58896;SDS011;44677;52.378;10.400;2023-09-07T02:06:47;5.50;;;5.00;;
58896;SDS011;44677;52.378;10.400;2023-09-07T02:09:13;7.50;;;5.40;;
58896;SDS011;44677;52.378;10.400;2023-09-07T02:11:38;6.70;;;4.90;;
58896;SDS011;44677;52.378;10.400;2023-09-07T02:14:24;7.90;;;4.90;;
58896;SDS011;44677;52.378;10.400;2023-09-07T02:16:49;5.20;;;4.50;;
58896;SDS011;44677;52.378;10.400;2023-09-07T02:19:15;5.00;;;4.60;;
58896;SDS011;44677;52.378;10.400;2023-09-07T02:21:50;5.00;;;4.50;;
58896;SDS011;44677;52.378;10.400;2023-09-07T02:24:41;6.10;;;5.00;;
58896;SDS011;44677;52.378;10.400;2023-09-07T02:27:07;5.60;;;5.10;;
58896;SDS011;44677;52.378;10.400;2023-09-07T02:29:36;7.30;;;5.30;;
58896;SDS011;44677;52.378;10.400;2023-09-07T02:32:02;5.90;;;5.30;;
58896;SDS011;44677;52.378;10.400;2023-09-07T02:34:29;6.50;;;5.00;;
58896;SDS011;44677;52.378;10.400;2023-09-07T02:36:58;6.60;;;5.30;;
58896;SDS011;44677;52.378;10.400;2023-09-07T02:39:25;6.50;;;5.60;;
58896;SDS011;44677;52.378;10.400;2023-09-07T02:42:10;6.80;;;5.90;;
58896;SDS011;44677;52.378;10.400;2023-09-07T02:44:36;7.00;;;5.70;;
58896;SDS011;44677;52.378;10.400;2023-09-07T02:47:05;9.30;;;5.60;;
58896;SDS011;44677;52.378;10.400;2023-09-07T02:49:31;7.30;;;5.50;;
58896;SDS011;44677;52.378;10.400;2023-09-07T02:51:56;6.20;;;5.60;;
58896;SDS011;44677;52.378;10.400;2023-09-07T02:54:42;7.40;;;5.00;;
58896;SDS011;44677;52.378;10.400;2023-09-07T02:57:07;5.90;;;5.20;;
58896;SDS011;44677;52.378;10.400;2023-09-07T02:59:33;5.30;;;4.70;;
58896;SDS011;44677;52.378;10.400;2023-09-07T03:02:04;5.70;;;4.90;;
58896;SDS011;44677;52.378;10.400;2023-09-07T03:04:40;6.30;;;5.20;;
58896;SDS011;44677;52.378;10.400;2023-09-07T03:07:05;7.80;;;5.40;;
58896;SDS011;44677;52.378;10.400;2023-09-07T03:09:31;6.00;;;5.40;;
58896;SDS011;44677;52.378;10.400;2023-09-07T03:11:56;6.80;;;5.80;;
58896;SDS011;44677;52.378;10.400;2023-09-07T03:14:22;6.50;;;5.80;;
58896;SDS011;44677;52.378;10.400;2023-09-07T03:16:51;7.10;;;5.80;;
58896;SDS011;44677;52.378;10.400;2023-09-07T03:19:16;8.50;;;5.70;;
58896;SDS011;44677;52.378;10.400;2023-09-07T03:21:42;6.50;;;5.90;;
58896;SDS011;44677;52.378;10.400;2023-09-07T03:24:07;8.40;;;6.10;;
58896;SDS011;44677;52.378;10.400;2023-09-07T03:26:42;6.90;;;5.50;;
58896;SDS011;44677;52.378;10.400;2023-09-07T03:29:25;8.10;;;5.70;;
58896;SDS011;44677;52.378;10.400;2023-09-07T03:31:51;6.20;;;5.70;;
58896;SDS011;44677;52.378;10.400;2023-09-07T03:34:16;6.50;;;5.60;;
58896;SDS011;44677;52.378;10.400;2023-09-07T03:36:41;5.90;;;5.30;;
58896;SDS011;44677;52.378;10.400;2023-09-07T03:39:07;6.40;;;5.30;;
58896;SDS011;44677;52.378;10.400;2023-09-07T03:41:33;7.80;;;6.00;;
58896;SDS011;44677;52.378;10.400;2023-09-07T03:43:59;6.70;;;5.90;;
58896;SDS011;44677;52.378;10.400;2023-09-07T03:46:33;9.20;;;6.50;;
58896;SDS011;44677;52.378;10.400;2023-09-07T03:48:58;6.70;;;6.00;;
58896;SDS011;44677;52.378;10.400;2023-09-07T03:51:34;7.30;;;6.60;;
58896;SDS011;44677;52.378;10.400;2023-09-07T03:54:07;7.00;;;6.40;;
58896;SDS011;44677;52.378;10.400;2023-09-07T03:56:32;7.60;;;6.20;;
58896;SDS011;44677;52.378;10.400;2023-09-07T03:59:01;8.20;;;6.20;;
58896;SDS011;44677;52.378;10.400;2023-09-07T04:01:26;6.80;;;5.80;;
58896;SDS011;44677;52.378;10.400;2023-09-07T04:03:52;7.20;;;6.30;;
58896;SDS011;44677;52.378;10.400;2023-09-07T04:06:18;6.90;;;6.00;;
58896;SDS011;44677;52.378;10.400;2023-09-07T04:08:44;8.90;;;6.50;;
58896;SDS011;44677;52.378;10.400;2023-09-07T04:11:10;6.90;;;6.30;;
58896;SDS011;44677;52.378;10.400;2023-09-07T04:13:36;7.20;;;6.40;;
58896;SDS011;44677;52.378;10.400;2023-09-07T04:16:01;8.30;;;6.70;;
58896;SDS011;44677;52.378;10.400;2023-09-07T04:18:27;11.00;;;6.90;;
58896;SDS011;44677;52.378;10.400;2023-09-07T04:20:53;7.60;;;6.80;;
58896;SDS011;44677;52.378;10.400;2023-09-07T04:23:18;8.90;;;7.10;;
58896;SDS011;44677;52.378;10.400;2023-09-07T04:25:44;7.20;;;6.60;;
58896;SDS011;44677;52.378;10.400;2023-09-07T04:30:39;7.70;;;7.00;;
58896;SDS011;44677;52.378;10.400;2023-09-07T04:33:05;9.50;;;6.60;;
58896;SDS011;44677;52.378;10.400;2023-09-07T04:35:51;7.40;;;6.60;;
58896;SDS011;44677;52.378;10.400;2023-09-07T04:38:17;7.70;;;6.60;;
58896;SDS011;44677;52.378;10.400;2023-09-07T04:40:42;7.90;;;6.60;;
58896;SDS011;44677;52.378;10.400;2023-09-07T04:43:08;7.70;;;6.70;;
58896;SDS011;44677;52.378;10.400;2023-09-07T04:45:36;8.90;;;6.70;;
58896;SDS011;44677;52.378;10.400;2023-09-07T04:48:01;7.60;;;6.90;;
58896;SDS011;44677;52.378;10.400;2023-09-07T04:50:47;8.00;;;6.90;;
58896;SDS011;44677;52.378;10.400;2023-09-07T04:53:13;8.60;;;6.60;;
58896;SDS011;44677;52.378;10.400;2023-09-07T04:55:38;7.40;;;6.60;;
58896;SDS011;44677;52.378;10.400;2023-09-07T04:58:04;9.40;;;7.10;;
58896;SDS011;44677;52.378;10.400;2023-09-07T05:00:29;10.20;;;7.00;;
58896;SDS011;44677;52.378;10.400;2023-09-07T05:03:30;10.40;;;6.50;;
58896;SDS011;44677;52.378;10.400;2023-09-07T05:05:56;10.20;;;6.90;;
58896;SDS011;44677;52.378;10.400;2023-09-07T05:08:22;7.40;;;6.50;;
58896;SDS011;44677;52.378;10.400;2023-09-07T05:11:28;6.80;;;6.20;;
58896;SDS011;44677;52.378;10.400;2023-09-07T05:13:53;9.30;;;5.70;;
58896;SDS011;44677;52.378;10.400;2023-09-07T05:16:19;7.00;;;6.10;;
58896;SDS011;44677;52.378;10.400;2023-09-07T05:18:47;7.20;;;6.20;;
58896;SDS011;44677;52.378;10.400;2023-09-07T05:21:13;8.30;;;6.30;;
58896;SDS011;44677;52.378;10.400;2023-09-07T05:23:40;6.20;;;5.60;;
58896;SDS011;44677;52.378;10.400;2023-09-07T05:26:08;13.10;;;7.10;;
58896;SDS011;44677;52.378;10.400;2023-09-07T05:28:36;11.40;;;6.50;;
58896;SDS011;44677;52.378;10.400;2023-09-07T05:31:04;9.60;;;6.80;;
58896;SDS011;44677;52.378;10.400;2023-09-07T05:33:30;10.70;;;6.50;;
58896;SDS011;44677;52.378;10.400;2023-09-07T05:36:03;11.00;;;6.20;;
58896;SDS011;44677;52.378;10.400;2023-09-07T05:38:32;6.70;;;6.00;;
58896;SDS011;44677;52.378;10.400;2023-09-07T05:41:00;9.60;;;6.30;;
58896;SDS011;44677;52.378;10.400;2023-09-07T05:43:26;8.00;;;6.40;;
58896;SDS011;44677;52.378;10.400;2023-09-07T05:45:51;7.60;;;6.00;;
58896;SDS011;44677;52.378;10.400;2023-09-07T05:48:37;6.90;;;5.60;;
58896;SDS011;44677;52.378;10.400;2023-09-07T05:51:02;6.60;;;6.00;;
58896;SDS011;44677;52.378;10.400;2023-09-07T05:53:38;10.90;;;6.60;;
58896;SDS011;44677;52.378;10.400;2023-09-07T05:56:28;6.10;;;5.50;;
58896;SDS011;44677;52.378;10.400;2023-09-07T05:59:20;9.10;;;6.20;;
58896;SDS011;44677;52.378;10.400;2023-09-07T06:02:53;6.90;;;6.00;;
58896;SDS011;44677;52.378;10.400;2023-09-07T06:07:52;7.00;;;6.40;;
58896;SDS011;44677;52.378;10.400;2023-09-07T06:10:53;7.40;;;6.40;;
58896;SDS011;44677;52.378;10.400;2023-09-07T06:13:18;7.90;;;7.10;;
58896;SDS011;44677;52.378;10.400;2023-09-07T06:15:44;7.30;;;6.60;;
58896;SDS011;44677;52.378;10.400;2023-09-07T06:18:10;8.10;;;7.30;;
58896;SDS011;44677;52.378;10.400;2023-09-07T06:20:36;9.00;;;7.10;;
58896;SDS011;44677;52.378;10.400;2023-09-07T06:23:02;8.40;;;7.30;;
58896;SDS011;44677;52.378;10.400;2023-09-07T06:25:27;8.30;;;7.50;;
58896;SDS011;44677;52.378;10.400;2023-09-07T06:27:53;8.80;;;7.50;;
58896;SDS011;44677;52.378;10.400;2023-09-07T06:30:25;8.10;;;6.70;;
58896;SDS011;44677;52.378;10.400;2023-09-07T06:32:57;7.70;;;6.30;;
58896;SDS011;44677;52.378;10.400;2023-09-07T06:35:24;8.60;;;6.80;;
58896;SDS011;44677;52.378;10.400;2023-09-07T06:37:50;8.00;;;7.10;;
58896;SDS011;44677;52.378;10.400;2023-09-07T06:41:00;7.60;;;6.90;;
58896;SDS011;44677;52.378;10.400;2023-09-07T06:43:45;9.10;;;6.70;;
58896;SDS011;44677;52.378;10.400;2023-09-07T06:46:54;7.30;;;6.60;;
58896;SDS011;44677;52.378;10.400;2023-09-07T06:49:29;8.20;;;6.60;;
58896;SDS011;44677;52.378;10.400;2023-09-07T06:52:01;9.70;;;7.00;;
58896;SDS011;44677;52.378;10.400;2023-09-07T06:54:50;9.80;;;6.70;;
58896;SDS011;44677;52.378;10.400;2023-09-07T06:58:13;9.40;;;7.00;;
58896;SDS011;44677;52.378;10.400;2023-09-07T07:03:42;8.80;;;6.30;;
58896;SDS011;44677;52.378;10.400;2023-09-07T07:06:08;8.40;;;6.70;;
58896;SDS011;44677;52.378;10.400;2023-09-07T07:08:33;11.10;;;6.40;;
58896;SDS011;44677;52.378;10.400;2023-09-07T07:10:59;9.50;;;7.20;;
58896;SDS011;44677;52.378;10.400;2023-09-07T07:13:27;7.70;;;6.20;;
58896;SDS011;44677;52.378;10.400;2023-09-07T07:15:53;9.10;;;6.40;;
58896;SDS011;44677;52.378;10.400;2023-09-07T07:18:19;14.90;;;6.80;;
58896;SDS011;44677;52.378;10.400;2023-09-07T07:20:44;9.20;;;6.80;;
58896;SDS011;44677;52.378;10.400;2023-09-07T07:23:10;6.70;;;6.00;;
58896;SDS011;44677;52.378;10.400;2023-09-07T07:25:36;6.90;;;6.20;;
58896;SDS011;44677;52.378;10.400;2023-09-07T07:28:03;12.10;;;6.50;;
58896;SDS011;44677;52.378;10.400;2023-09-07T07:30:33;9.50;;;6.00;;
58896;SDS011;44677;52.378;10.400;2023-09-07T07:33:05;9.60;;;6.20;;
58896;SDS011;44677;52.378;10.400;2023-09-07T07:35:31;10.10;;;6.00;;
58896;SDS011;44677;52.378;10.400;2023-09-07T07:37:58;7.60;;;5.90;;
58896;SDS011;44677;52.378;10.400;2023-09-07T07:40:24;9.60;;;6.10;;
58896;SDS011;44677;52.378;10.400;2023-09-07T07:42:51;9.90;;;6.10;;
58896;SDS011;44677;52.378;10.400;2023-09-07T07:45:17;8.60;;;5.90;;
58896;SDS011;44677;52.378;10.400;2023-09-07T07:47:46;11.10;;;5.80;;
58896;SDS011;44677;52.378;10.400;2023-09-07T07:50:11;8.50;;;5.70;;
58896;SDS011;44677;52.378;10.400;2023-09-07T07:52:37;9.10;;;5.80;;
58896;SDS011;44677;52.378;10.400;2023-09-07T07:55:03;8.60;;;6.20;;
58896;SDS011;44677;52.378;10.400;2023-09-07T07:57:29;10.50;;;6.10;;
58896;SDS011;44677;52.378;10.400;2023-09-07T07:59:56;10.80;;;6.00;;
58896;SDS011;44677;52.378;10.400;2023-09-07T08:02:44;7.10;;;5.80;;
58896;SDS011;44677;52.378;10.400;2023-09-07T08:05:10;9.90;;;6.60;;
58896;SDS011;44677;52.378;10.400;2023-09-07T08:07:36;7.40;;;5.60;;
58896;SDS011;44677;52.378;10.400;2023-09-07T08:10:01;7.30;;;5.30;;
58896;SDS011;44677;52.378;10.400;2023-09-07T08:12:28;6.80;;;5.70;;
58896;SDS011;44677;52.378;10.400;2023-09-07T08:14:54;8.10;;;5.50;;
58896;SDS011;44677;52.378;10.400;2023-09-07T08:17:21;6.70;;;5.60;;
58896;SDS011;44677;52.378;10.400;2023-09-07T08:19:49;9.90;;;5.50;;
58896;SDS011;44677;52.378;10.400;2023-09-07T08:22:34;9.30;;;5.00;;
58896;SDS011;44677;52.378;10.400;2023-09-07T08:25:10;5.70;;;5.10;;
58896;SDS011;44677;52.378;10.400;2023-09-07T08:27:42;10.50;;;5.30;;
58896;SDS011;44677;52.378;10.400;2023-09-07T08:30:13;6.70;;;5.10;;
58896;SDS011;44677;52.378;10.400;2023-09-07T08:32:55;7.00;;;4.70;;
58896;SDS011;44677;52.378;10.400;2023-09-07T08:35:21;8.40;;;5.30;;
58896;SDS011;44677;52.378;10.400;2023-09-07T08:37:52;5.70;;;4.70;;
58896;SDS011;44677;52.378;10.400;2023-09-07T08:40:21;6.10;;;5.20;;
58896;SDS011;44677;52.378;10.400;2023-09-07T08:42:47;9.40;;;5.30;;
58896;SDS011;44677;52.378;10.400;2023-09-07T08:45:13;7.00;;;5.10;;
58896;SDS011;44677;52.378;10.400;2023-09-07T08:47:40;6.10;;;4.70;;
58896;SDS011;44677;52.378;10.400;2023-09-07T08:50:06;8.80;;;5.30;;
58896;SDS011;44677;52.378;10.400;2023-09-07T08:52:33;7.00;;;4.70;;
58896;SDS011;44677;52.378;10.400;2023-09-07T08:54:59;7.80;;;4.70;;
58896;SDS011;44677;52.378;10.400;2023-09-07T08:57:26;5.00;;;4.50;;
58896;SDS011;44677;52.378;10.400;2023-09-07T08:59:55;6.10;;;4.90;;
58896;SDS011;44677;52.378;10.400;2023-09-07T09:02:41;5.60;;;4.90;;
58896;SDS011;44677;52.378;10.400;2023-09-07T09:05:08;7.20;;;4.70;;
58896;SDS011;44677;52.378;10.400;2023-09-07T09:07:35;4.50;;;4.00;;
58896;SDS011;44677;52.378;10.400;2023-09-07T09:10:07;8.50;;;5.00;;
58896;SDS011;44677;52.378;10.400;2023-09-07T09:12:49;6.80;;;4.50;;
58896;SDS011;44677;52.378;10.400;2023-09-07T09:15:15;5.90;;;4.70;;
58896;SDS011;44677;52.378;10.400;2023-09-07T09:17:40;7.10;;;4.60;;
58896;SDS011;44677;52.378;10.400;2023-09-07T09:20:19;9.40;;;5.10;;
58896;SDS011;44677;52.378;10.400;2023-09-07T09:22:49;6.00;;;4.90;;
58896;SDS011;44677;52.378;10.400;2023-09-07T09:25:19;5.90;;;4.30;;
58896;SDS011;44677;52.378;10.400;2023-09-07T09:27:54;5.10;;;4.60;;
58896;SDS011;44677;52.378;10.400;2023-09-07T09:30:19;6.30;;;4.40;;
58896;SDS011;44677;52.378;10.400;2023-09-07T09:32:46;6.60;;;4.90;;
58896;SDS011;44677;52.378;10.400;2023-09-07T09:35:16;5.10;;;4.50;;
58896;SDS011;44677;52.378;10.400;2023-09-07T09:37:45;6.40;;;4.40;;
58896;SDS011;44677;52.378;10.400;2023-09-07T09:40:33;5.00;;;4.50;;
58896;SDS011;44677;52.378;10.400;2023-09-07T09:43:03;6.40;;;5.20;;
58896;SDS011;44677;52.378;10.400;2023-09-07T09:45:29;10.60;;;4.70;;
58896;SDS011;44677;52.378;10.400;2023-09-07T09:47:55;5.10;;;4.40;;
58896;SDS011;44677;52.378;10.400;2023-09-07T09:50:21;8.60;;;4.40;;
58896;SDS011;44677;52.378;10.400;2023-09-07T09:52:47;4.90;;;4.20;;
58896;SDS011;44677;52.378;10.400;2023-09-07T09:55:13;6.70;;;4.50;;
58896;SDS011;44677;52.378;10.400;2023-09-07T09:57:39;5.60;;;4.60;;
58896;SDS011;44677;52.378;10.400;2023-09-07T10:00:04;6.50;;;4.40;;
58896;SDS011;44677;52.378;10.400;2023-09-07T10:03:01;4.40;;;4.00;;
58896;SDS011;44677;52.378;10.400;2023-09-07T10:05:32;6.70;;;4.60;;
58896;SDS011;44677;52.378;10.400;2023-09-07T10:08:00;5.10;;;4.40;;
58896;SDS011;44677;52.378;10.400;2023-09-07T10:10:36;5.80;;;4.60;;
58896;SDS011;44677;52.378;10.400;2023-09-07T10:13:03;6.30;;;4.80;;
58896;SDS011;44677;52.378;10.400;2023-09-07T10:15:29;7.10;;;4.30;;
58896;SDS011;44677;52.378;10.400;2023-09-07T10:44:26;6.90;;;4.30;;
58896;SDS011;44677;52.378;10.400;2023-09-07T10:46:53;8.60;;;4.60;;
58896;SDS011;44677;52.378;10.400;2023-09-07T10:49:19;7.70;;;4.60;;
58896;SDS011;44677;52.378;10.400;2023-09-07T10:51:45;5.50;;;4.20;;
58896;SDS011;44677;52.378;10.400;2023-09-07T10:54:21;5.20;;;4.60;;
58896;SDS011;44677;52.378;10.400;2023-09-07T10:56:48;7.90;;;4.50;;
58896;SDS011;44677;52.378;10.400;2023-09-07T10:59:14;7.70;;;4.40;;
58896;SDS011;44677;52.378;10.400;2023-09-07T11:01:40;7.80;;;4.70;;
58896;SDS011;44677;52.378;10.400;2023-09-07T11:04:06;5.70;;;4.20;;
58896;SDS011;44677;52.378;10.400;2023-09-07T11:06:35;4.70;;;4.00;;
58896;SDS011;44677;52.378;10.400;2023-09-07T11:11:29;5.20;;;4.10;;
58896;SDS011;44677;52.378;10.400;2023-09-07T11:14:05;6.20;;;4.40;;
58896;SDS011;44677;52.378;10.400;2023-09-07T11:16:36;5.80;;;4.10;;
58896;SDS011;44677;52.378;10.400;2023-09-07T11:19:39;6.10;;;3.80;;
58896;SDS011;44677;52.378;10.400;2023-09-07T11:22:05;4.70;;;4.00;;
58896;SDS011;44677;52.378;10.400;2023-09-07T11:24:31;5.60;;;4.20;;
58896;SDS011;44677;52.378;10.400;2023-09-07T11:26:58;8.20;;;4.10;;
58896;SDS011;44677;52.378;10.400;2023-09-07T11:29:24;4.70;;;4.30;;
58896;SDS011;44677;52.378;10.400;2023-09-07T11:31:49;4.60;;;3.90;;
58896;SDS011;44677;52.378;10.400;2023-09-07T11:34:24;7.00;;;4.20;;
58896;SDS011;44677;52.378;10.400;2023-09-07T11:36:49;8.70;;;4.00;;
58896;SDS011;44677;52.378;10.400;2023-09-07T11:39:18;4.50;;;4.00;;
58896;SDS011;44677;52.378;10.400;2023-09-07T11:41:45;4.90;;;3.90;;
58896;SDS011;44677;52.378;10.400;2023-09-07T11:44:11;5.50;;;3.80;;
58896;SDS011;44677;52.378;10.400;2023-09-07T11:46:37;4.60;;;3.90;;
58896;SDS011;44677;52.378;10.400;2023-09-07T11:49:02;5.10;;;3.80;;
58896;SDS011;44677;52.378;10.400;2023-09-07T11:54:06;7.30;;;3.90;;
58896;SDS011;44677;52.378;10.400;2023-09-07T11:56:31;7.30;;;4.00;;
58896;SDS011;44677;52.378;10.400;2023-09-07T11:58:57;8.90;;;4.60;;
58896;SDS011;44677;52.378;10.400;2023-09-07T12:01:22;6.40;;;3.90;;
58896;SDS011;44677;52.378;10.400;2023-09-07T12:03:48;4.00;;;3.70;;
58896;SDS011;44677;52.378;10.400;2023-09-07T12:06:16;5.00;;;4.10;;
58896;SDS011;44677;52.378;10.400;2023-09-07T12:08:42;5.20;;;3.80;;
58896;SDS011;44677;52.378;10.400;2023-09-07T12:11:47;5.00;;;3.70;;
58896;SDS011;44677;52.378;10.400;2023-09-07T12:14:27;4.90;;;3.90;;
58896;SDS011;44677;52.378;10.400;2023-09-07T12:16:53;4.40;;;3.70;;
58896;SDS011;44677;52.378;10.400;2023-09-07T12:19:18;4.60;;;3.90;;
58896;SDS011;44677;52.378;10.400;2023-09-07T12:21:44;6.60;;;3.80;;
58896;SDS011;44677;52.378;10.400;2023-09-07T12:24:09;6.70;;;4.50;;
58896;SDS011;44677;52.378;10.400;2023-09-07T12:26:35;4.20;;;3.80;;
58896;SDS011;44677;52.378;10.400;2023-09-07T12:29:00;4.60;;;3.80;;
58896;SDS011;44677;52.378;10.400;2023-09-07T12:31:26;4.60;;;3.80;;
58896;SDS011;44677;52.378;10.400;2023-09-07T12:33:51;4.10;;;3.80;;
58896;SDS011;44677;52.378;10.400;2023-09-07T12:36:17;5.50;;;3.80;;
58896;SDS011;44677;52.378;10.400;2023-09-07T12:38:43;4.10;;;3.60;;
58896;SDS011;44677;52.378;10.400;2023-09-07T12:41:08;5.10;;;3.80;;
58896;SDS011;44677;52.378;10.400;2023-09-07T12:43:34;5.50;;;3.80;;
58896;SDS011;44677;52.378;10.400;2023-09-07T12:45:59;4.10;;;3.70;;
58896;SDS011;44677;52.378;10.400;2023-09-07T12:48:25;6.40;;;3.80;;
58896;SDS011;44677;52.378;10.400;2023-09-07T12:50:51;4.20;;;3.80;;
58896;SDS011;44677;52.378;10.400;2023-09-07T12:53:16;6.20;;;3.90;;
58896;SDS011;44677;52.378;10.400;2023-09-07T12:55:42;4.20;;;3.80;;
58896;SDS011;44677;52.378;10.400;2023-09-07T12:58:07;4.10;;;3.70;;
58896;SDS011;44677;52.378;10.400;2023-09-07T13:00:32;6.10;;;3.50;;
58896;SDS011;44677;52.378;10.400;2023-09-07T13:02:58;3.80;;;3.40;;
58896;SDS011;44677;52.378;10.400;2023-09-07T13:05:24;4.40;;;3.50;;
58896;SDS011;44677;52.378;10.400;2023-09-07T13:07:49;4.40;;;3.60;;
58896;SDS011;44677;52.378;10.400;2023-09-07T13:10:15;4.60;;;3.50;;
58896;SDS011;44677;52.378;10.400;2023-09-07T13:12:40;4.30;;;3.80;;
58896;SDS011;44677;52.378;10.400;2023-09-07T13:15:26;4.80;;;3.90;;
58896;SDS011;44677;52.378;10.400;2023-09-07T13:17:52;4.70;;;3.90;;
58896;SDS011;44677;52.378;10.400;2023-09-07T13:20:17;6.70;;;4.40;;
58896;SDS011;44677;52.378;10.400;2023-09-07T13:23:03;4.20;;;3.60;;
58896;SDS011;44677;52.378;10.400;2023-09-07T13:25:29;4.80;;;3.90;;
58896;SDS011;44677;52.378;10.400;2023-09-07T13:27:54;3.70;;;3.40;;
58896;SDS011;44677;52.378;10.400;2023-09-07T13:30:19;4.30;;;3.50;;
58896;SDS011;44677;52.378;10.400;2023-09-07T13:32:45;5.30;;;3.70;;
58896;SDS011;44677;52.378;10.400;2023-09-07T13:35:33;4.10;;;3.70;;
58896;SDS011;44677;52.378;10.400;2023-09-07T13:37:59;4.80;;;4.10;;
58896;SDS011;44677;52.378;10.400;2023-09-07T13:40:25;4.30;;;3.80;;
58896;SDS011;44677;52.378;10.400;2023-09-07T13:43:10;5.10;;;3.70;;
58896;SDS011;44677;52.378;10.400;2023-09-07T13:45:36;7.00;;;3.80;;
58896;SDS011;44677;52.378;10.400;2023-09-07T13:48:02;4.20;;;3.40;;
58896;SDS011;44677;52.378;10.400;2023-09-07T13:52:55;4.70;;;3.60;;
58896;SDS011;44677;52.378;10.400;2023-09-07T13:55:21;4.00;;;3.50;;
58896;SDS011;44677;52.378;10.400;2023-09-07T13:57:52;4.60;;;3.80;;
58896;SDS011;44677;52.378;10.400;2023-09-07T14:02:43;3.80;;;3.40;;
58896;SDS011;44677;52.378;10.400;2023-09-07T14:05:09;5.40;;;3.40;;
58896;SDS011;44677;52.378;10.400;2023-09-07T14:07:52;7.00;;;3.50;;
58896;SDS011;44677;52.378;10.400;2023-09-07T14:10:17;4.30;;;3.60;;
58896;SDS011;44677;52.378;10.400;2023-09-07T14:12:43;6.60;;;4.00;;
58896;SDS011;44677;52.378;10.400;2023-09-07T14:15:28;3.80;;;3.50;;
58896;SDS011;44677;52.378;10.400;2023-09-07T14:18:14;4.50;;;3.90;;
58896;SDS011;44677;52.378;10.400;2023-09-07T14:20:39;7.20;;;4.60;;
58896;SDS011;44677;52.378;10.400;2023-09-07T14:23:05;7.90;;;4.30;;
58896;SDS011;44677;52.378;10.400;2023-09-07T14:25:30;5.70;;;3.80;;
58896;SDS011;44677;52.378;10.400;2023-09-07T14:27:56;5.00;;;4.30;;
58896;SDS011;44677;52.378;10.400;2023-09-07T14:30:22;3.90;;;3.60;;
58896;SDS011;44677;52.378;10.400;2023-09-07T14:32:47;5.40;;;4.20;;
58896;SDS011;44677;52.378;10.400;2023-09-07T14:35:33;5.70;;;3.90;;
58896;SDS011;44677;52.378;10.400;2023-09-07T14:37:58;6.10;;;4.40;;
58896;SDS011;44677;52.378;10.400;2023-09-07T14:40:24;10.00;;;4.00;;
58896;SDS011;44677;52.378;10.400;2023-09-07T14:42:50;7.80;;;4.40;;
58896;SDS011;44677;52.378;10.400;2023-09-07T14:45:16;5.50;;;4.10;;
58896;SDS011;44677;52.378;10.400;2023-09-07T14:47:41;5.10;;;4.00;;
58896;SDS011;44677;52.378;10.400;2023-09-07T14:50:07;5.40;;;4.00;;
58896;SDS011;44677;52.378;10.400;2023-09-07T14:52:33;5.10;;;3.90;;
58896;SDS011;44677;52.378;10.400;2023-09-07T14:55:21;5.30;;;4.50;;
58896;SDS011;44677;52.378;10.400;2023-09-07T14:57:47;5.50;;;4.00;;
58896;SDS011;44677;52.378;10.400;2023-09-07T15:00:12;7.50;;;3.80;;
58896;SDS011;44677;52.378;10.400;2023-09-07T15:02:38;4.80;;;3.90;;
58896;SDS011;44677;52.378;10.400;2023-09-07T15:05:03;5.50;;;4.00;;
58896;SDS011;44677;52.378;10.400;2023-09-07T15:07:29;6.60;;;4.10;;
58896;SDS011;44677;52.378;10.400;2023-09-07T15:10:05;5.60;;;4.20;;
58896;SDS011;44677;52.378;10.400;2023-09-07T15:12:31;4.50;;;4.00;;
58896;SDS011;44677;52.378;10.400;2023-09-07T15:14:56;5.60;;;5.10;;
58896;SDS011;44677;52.378;10.400;2023-09-07T15:17:22;5.80;;;4.40;;
58896;SDS011;44677;52.378;10.400;2023-09-07T15:19:47;6.50;;;5.00;;
58896;SDS011;44677;52.378;10.400;2023-09-07T15:22:13;7.60;;;6.30;;
58896;SDS011;44677;52.378;10.400;2023-09-07T15:24:38;7.90;;;7.00;;
58896;SDS011;44677;52.378;10.400;2023-09-07T15:27:10;4.90;;;4.30;;
58896;SDS011;44677;52.378;10.400;2023-09-07T15:29:52;5.70;;;4.30;;
58896;SDS011;44677;52.378;10.400;2023-09-07T15:32:18;5.10;;;4.10;;
58896;SDS011;44677;52.378;10.400;2023-09-07T15:34:44;4.30;;;3.90;;